Terminal Aerodrome Forecast
Issued by NWS Wakefield, VA

Home | Current Version | Previous Version | Text Only | Print | Product List | Glossary On
Versions: 1 2 3 4 5 6 7 8 9 10 11 12 13 14 15
000
FTUS41 KAKQ 252326
TAFSBY
TAF
KSBY 252326Z 2600/2624 16003KT 4SM -RA BR SCT030 OVC050
     FM260300 03004KT 3SM -RA BR BKN012 OVC040
     FM261000 02007KT P6SM OVC050=

USA.gov is the U.S. government's official web portal to all federal, state and local government web resources and services.